createdAt,value
2022-10-09T00:00:50.278Z,12.7
2022-10-09T00:01:50.404Z,12.7
2022-10-09T00:02:51.405Z,12.7
2022-10-09T00:03:52.198Z,12.7
2022-10-09T00:04:52.382Z,12.7
2022-10-09T00:05:52.564Z,12.6
2022-10-09T00:06:52.695Z,12.6
2022-10-09T00:07:52.830Z,12.6
2022-10-09T00:08:52.954Z,12.6
2022-10-09T00:09:53.085Z,12.6
2022-10-09T00:10:53.217Z,12.6
2022-10-09T00:11:53.353Z,12.6
2022-10-09T00:12:53.491Z,12.6
2022-10-09T00:13:53.621Z,12.6
2022-10-09T00:14:53.754Z,12.6
2022-10-09T00:15:53.886Z,12.4
2022-10-09T00:16:54.132Z,12.4
2022-10-09T00:17:54.345Z,12.4
2022-10-09T00:18:54.472Z,12.4
2022-10-09T00:19:54.605Z,12.4
2022-10-09T00:20:54.738Z,12.4
2022-10-09T00:21:54.869Z,12.4
2022-10-09T00:22:54.998Z,12.4
2022-10-09T00:23:55.129Z,12.4
2022-10-09T00:24:55.255Z,12.4
2022-10-09T00:25:55.386Z,12.3
2022-10-09T00:26:55.508Z,12.3
2022-10-09T00:27:55.636Z,12.3
2022-10-09T00:28:55.989Z,12.3
2022-10-09T00:29:56.237Z,12.3
2022-10-09T00:30:56.440Z,12.3
2022-10-09T00:31:56.653Z,12.3
2022-10-09T00:32:56.798Z,12.3
2022-10-09T00:33:56.924Z,12.3
2022-10-09T00:34:57.058Z,12.3
2022-10-09T00:35:57.194Z,12.3
2022-10-09T00:36:57.327Z,12.3
2022-10-09T00:37:57.452Z,12.3
2022-10-09T00:38:57.586Z,12.3
2022-10-09T00:39:57.717Z,12.3
2022-10-09T00:40:57.848Z,12.3
2022-10-09T00:41:57.981Z,12.3
2022-10-09T00:42:58.135Z,12.3
2022-10-09T00:43:58.275Z,12.3
2022-10-09T00:44:58.394Z,12.3
2022-10-09T00:45:58.627Z,12.2
2022-10-09T00:46:58.810Z,12.2
2022-10-09T00:47:58.939Z,12.2
2022-10-09T00:48:59.062Z,12.2
2022-10-09T00:49:59.194Z,12.2
2022-10-09T00:50:59.322Z,12.2
2022-10-09T00:51:59.451Z,12.2
2022-10-09T00:52:59.576Z,12.2
2022-10-09T00:53:59.711Z,12.2
2022-10-09T00:54:59.842Z,12.2
2022-10-09T00:55:59.971Z,12.1
2022-10-09T00:57:00.121Z,12.1
2022-10-09T00:58:00.250Z,12.1
2022-10-09T00:59:00.369Z,12.1
2022-10-09T01:00:00.493Z,12.1
2022-10-09T01:01:00.698Z,12.1
2022-10-09T01:02:01.185Z,12.1
2022-10-09T01:03:01.493Z,12.1
2022-10-09T01:04:01.617Z,12.1
2022-10-09T01:05:01.750Z,12
2022-10-09T01:06:01.884Z,12
2022-10-09T01:07:02.010Z,12
2022-10-09T01:08:02.143Z,12
2022-10-09T01:09:02.273Z,12
2022-10-09T01:10:02.401Z,12
2022-10-09T01:11:02.538Z,12
2022-10-09T01:12:02.675Z,12
2022-10-09T01:13:02.796Z,12
2022-10-09T01:14:02.920Z,12
2022-10-09T01:15:03.114Z,11.9
2022-10-09T01:16:03.350Z,11.9
2022-10-09T01:17:03.555Z,11.9
2022-10-09T01:18:03.677Z,11.9
2022-10-09T01:19:03.804Z,11.9
2022-10-09T01:20:03.930Z,11.9
2022-10-09T01:21:04.083Z,11.9
2022-10-09T01:22:04.215Z,11.9
2022-10-09T01:23:04.337Z,11.9
2022-10-09T01:24:04.459Z,11.9
2022-10-09T01:25:04.580Z,11.8
2022-10-09T01:26:04.714Z,11.8
2022-10-09T01:27:04.842Z,11.8
2022-10-09T01:28:05.099Z,11.8
2022-10-09T01:29:05.398Z,11.8
2022-10-09T01:30:05.546Z,11.8
2022-10-09T01:31:05.874Z,11.8
2022-10-09T01:32:06.215Z,11.8
2022-10-09T01:33:06.348Z,11.8
2022-10-09T01:34:06.477Z,11.8
2022-10-09T01:35:06.608Z,11.7
2022-10-09T01:36:06.754Z,11.7
2022-10-09T01:37:06.882Z,11.7
2022-10-09T01:38:07.011Z,11.7
2022-10-09T01:39:07.144Z,11.7
2022-10-09T01:40:07.288Z,11.7
2022-10-09T01:41:07.419Z,11.7
2022-10-09T01:42:07.558Z,11.7
2022-10-09T01:43:07.684Z,11.7
2022-10-09T01:44:07.815Z,11.7
2022-10-09T01:45:07.941Z,11.6
2022-10-09T01:46:08.117Z,11.6
2022-10-09T01:47:08.327Z,11.6
2022-10-09T01:48:08.466Z,11.6
2022-10-09T01:49:08.597Z,11.6
2022-10-09T01:50:08.723Z,11.6
2022-10-09T01:51:08.848Z,11.6
2022-10-09T01:52:08.971Z,11.6
2022-10-09T01:53:09.095Z,11.6
2022-10-09T01:54:09.230Z,11.6
2022-10-09T01:55:09.364Z,11.4
2022-10-09T01:56:09.484Z,11.4
2022-10-09T01:57:09.606Z,11.4
2022-10-09T01:58:09.736Z,11.4
2022-10-09T01:59:16.138Z,11.4
2022-10-09T02:00:16.486Z,11.4
2022-10-09T02:01:16.808Z,11.4
2022-10-09T02:02:17.417Z,11.4
2022-10-09T02:03:17.730Z,11.4
2022-10-09T02:04:17.875Z,11.4
2022-10-09T02:05:17.996Z,11.3
2022-10-09T02:06:18.120Z,11.3
2022-10-09T02:07:18.246Z,11.3
2022-10-09T02:08:18.375Z,11.3
2022-10-09T02:09:18.511Z,11.3
2022-10-09T02:10:18.641Z,11.3
2022-10-09T02:11:18.764Z,11.3
2022-10-09T02:12:18.887Z,11.3
2022-10-09T02:13:19.009Z,11.3
2022-10-09T02:14:19.151Z,11.3
2022-10-09T02:15:19.292Z,11.2
2022-10-09T02:16:19.466Z,11.2
2022-10-09T02:17:19.692Z,11.2
2022-10-09T02:18:19.814Z,11.2
2022-10-09T02:19:19.950Z,11.2
2022-10-09T02:20:20.076Z,11.2
2022-10-09T02:21:20.210Z,11.2
2022-10-09T02:22:20.330Z,11.2
2022-10-09T02:23:20.460Z,11.2
2022-10-09T02:24:20.584Z,11.2
2022-10-09T02:25:20.717Z,11
2022-10-09T02:26:20.845Z,11
2022-10-09T02:27:20.978Z,11
2022-10-09T02:28:21.347Z,11
2022-10-09T02:29:21.575Z,11
2022-10-09T02:30:21.711Z,11
2022-10-09T02:31:21.964Z,11
2022-10-09T02:32:22.152Z,11
2022-10-09T02:33:22.278Z,11
2022-10-09T02:34:22.403Z,11
2022-10-09T02:35:22.541Z,10.9
2022-10-09T02:36:22.667Z,10.9
2022-10-09T02:37:22.796Z,10.9
2022-10-09T02:38:22.925Z,10.9
2022-10-09T02:39:23.047Z,10.9
2022-10-09T02:40:23.173Z,10.9
2022-10-09T02:41:23.299Z,10.9
2022-10-09T02:42:23.431Z,10.9
2022-10-09T02:43:23.560Z,10.9
2022-10-09T02:44:23.688Z,10.9
2022-10-09T02:45:23.822Z,10.7
2022-10-09T02:46:24.042Z,10.7
2022-10-09T02:47:24.275Z,10.7
2022-10-09T02:48:24.403Z,10.7
2022-10-09T02:49:24.530Z,10.7
2022-10-09T02:50:24.657Z,10.7
2022-10-09T02:51:24.801Z,10.7
2022-10-09T02:52:24.927Z,10.7
2022-10-09T02:53:25.055Z,10.7
2022-10-09T02:54:25.184Z,10.7
2022-10-09T02:55:25.311Z,10.6
2022-10-09T02:56:25.436Z,10.6
2022-10-09T02:57:25.562Z,10.6
2022-10-09T02:58:25.685Z,10.6
2022-10-09T02:59:25.820Z,10.6
2022-10-09T03:00:25.944Z,10.6
2022-10-09T03:01:26.234Z,10.6
2022-10-09T03:02:26.688Z,10.6
2022-10-09T03:03:27.096Z,10.6
2022-10-09T03:04:27.229Z,10.6
2022-10-09T03:05:27.361Z,10.5
2022-10-09T03:06:27.490Z,10.5
2022-10-09T03:07:27.619Z,10.5
2022-10-09T03:08:27.742Z,10.5
2022-10-09T03:09:33.905Z,10.5
2022-10-09T03:10:34.194Z,10.4
2022-10-09T03:11:34.329Z,10.4
2022-10-09T03:12:34.453Z,10.4
2022-10-09T03:13:34.615Z,10.4
2022-10-09T03:14:34.750Z,10.4
2022-10-09T03:15:34.887Z,10.4
2022-10-09T03:16:35.165Z,10.4
2022-10-09T03:17:35.360Z,10.4
2022-10-09T03:18:35.490Z,10.4
2022-10-09T03:19:35.615Z,10.4
2022-10-09T03:20:35.746Z,10.4
2022-10-09T03:21:35.876Z,10.4
2022-10-09T03:22:36.008Z,10.4
2022-10-09T03:23:36.138Z,10.4
2022-10-09T03:24:36.263Z,10.4
2022-10-09T03:25:36.393Z,10.3
2022-10-09T03:26:36.520Z,10.3
2022-10-09T03:27:36.649Z,10.3
2022-10-09T03:28:36.889Z,10.3
2022-10-09T03:29:37.134Z,10.3
2022-10-09T03:30:37.273Z,10.3
2022-10-09T03:31:53.435Z,10.3
2022-10-09T03:32:53.998Z,10.2
2022-10-09T03:33:54.172Z,10.2
2022-10-09T03:34:54.294Z,10.2
2022-10-09T03:35:54.421Z,10.2
2022-10-09T03:36:54.549Z,10.2
2022-10-09T03:37:54.674Z,10.2
2022-10-09T03:38:54.799Z,10.2
2022-10-09T03:39:54.923Z,10.2
2022-10-09T03:40:55.050Z,10.2
2022-10-09T03:41:55.175Z,10.2
2022-10-09T03:42:55.317Z,10.2
2022-10-09T03:43:55.445Z,10.2
2022-10-09T03:44:55.570Z,10.2
2022-10-09T03:46:01.149Z,10.2
2022-10-09T03:47:01.592Z,10.2
2022-10-09T03:48:01.857Z,10.2
2022-10-09T03:49:01.990Z,10.2
2022-10-09T03:50:02.133Z,10.2
2022-10-09T03:51:02.262Z,10.2
2022-10-09T03:52:02.383Z,10.2
2022-10-09T03:53:02.504Z,10.2
2022-10-09T03:54:02.631Z,10.2
2022-10-09T03:55:02.769Z,10.1
2022-10-09T03:56:02.901Z,10.1
2022-10-09T03:57:03.035Z,10.1
2022-10-09T03:58:03.163Z,10.1
2022-10-09T03:59:03.291Z,10.1
2022-10-09T04:00:03.420Z,10.1
2022-10-09T04:01:03.689Z,10.1
2022-10-09T04:02:03.933Z,10.1
2022-10-09T04:03:04.170Z,10.1
2022-10-09T04:04:04.374Z,10.1
2022-10-09T04:05:04.504Z,10
2022-10-09T04:06:04.633Z,10
2022-10-09T04:07:04.763Z,10
2022-10-09T04:08:04.887Z,10
2022-10-09T04:09:05.012Z,10
2022-10-09T04:10:05.138Z,10
2022-10-09T04:11:05.269Z,10
2022-10-09T04:12:05.403Z,10
2022-10-09T04:13:05.529Z,10
2022-10-09T04:14:05.661Z,10
2022-10-09T04:15:05.795Z,10
2022-10-09T04:16:06.154Z,10
2022-10-09T04:17:06.410Z,10
2022-10-09T04:18:06.538Z,10
2022-10-09T04:19:06.672Z,10
2022-10-09T04:20:06.818Z,10
2022-10-09T04:21:06.946Z,10
2022-10-09T04:22:07.074Z,10
2022-10-09T04:23:07.214Z,10
2022-10-09T04:24:07.344Z,10
2022-10-09T04:25:07.473Z,9.89
2022-10-09T04:26:07.613Z,9.89
2022-10-09T04:27:07.742Z,9.89
2022-10-09T04:28:07.928Z,9.89
2022-10-09T04:29:08.113Z,9.89
2022-10-09T04:30:08.239Z,9.89
2022-10-09T04:31:08.550Z,9.89
2022-10-09T04:32:08.842Z,9.89
2022-10-09T04:33:13.243Z,9.89
2022-10-09T04:34:13.420Z,9.89
2022-10-09T04:35:13.544Z,9.89
2022-10-09T04:36:13.669Z,9.89
2022-10-09T04:37:13.797Z,9.89
2022-10-09T04:38:13.944Z,9.89
2022-10-09T04:39:14.068Z,9.89
2022-10-09T04:40:14.201Z,9.89
2022-10-09T04:41:14.347Z,9.89
2022-10-09T04:42:14.475Z,9.89
2022-10-09T04:43:14.599Z,9.89
2022-10-09T04:44:14.730Z,9.89
2022-10-09T04:45:14.855Z,9.8
2022-10-09T04:46:15.120Z,9.8
2022-10-09T04:47:15.355Z,9.8
2022-10-09T04:48:15.476Z,9.8
2022-10-09T04:49:15.603Z,9.8
2022-10-09T04:50:15.743Z,9.8
2022-10-09T04:51:15.876Z,9.8
2022-10-09T04:52:16.007Z,9.8
2022-10-09T04:53:16.138Z,9.8
2022-10-09T04:54:16.263Z,9.8
2022-10-09T04:55:16.384Z,9.7
2022-10-09T04:56:16.516Z,9.7
2022-10-09T04:57:16.670Z,9.7
2022-10-09T04:58:16.796Z,9.7
2022-10-09T04:59:16.926Z,9.7
2022-10-09T05:00:17.069Z,9.7
2022-10-09T05:01:17.346Z,9.7
2022-10-09T05:02:17.742Z,9.7
2022-10-09T05:03:17.964Z,9.7
2022-10-09T05:04:18.089Z,9.7
2022-10-09T05:05:18.226Z,9.6
2022-10-09T05:06:18.344Z,9.6
2022-10-09T05:07:18.461Z,9.6
2022-10-09T05:08:18.589Z,9.6
2022-10-09T05:09:18.758Z,9.6
2022-10-09T05:10:18.898Z,9.6
2022-10-09T05:11:19.034Z,9.6
2022-10-09T05:12:19.171Z,9.6
2022-10-09T05:13:19.295Z,9.6
2022-10-09T05:14:19.419Z,9.6
2022-10-09T05:15:19.544Z,9.5
2022-10-09T05:16:19.841Z,9.5
2022-10-09T05:17:23.775Z,9.5
2022-10-09T05:18:24.151Z,9.5
2022-10-09T05:19:24.279Z,9.5
2022-10-09T05:20:24.437Z,9.5
2022-10-09T05:21:24.570Z,9.5
2022-10-09T05:22:24.712Z,9.5
2022-10-09T05:23:24.839Z,9.5
2022-10-09T05:24:24.987Z,9.5
2022-10-09T05:25:25.114Z,9.5
2022-10-09T05:26:25.236Z,9.5
2022-10-09T05:27:25.362Z,9.5
2022-10-09T05:28:25.633Z,9.5
2022-10-09T05:29:25.885Z,9.5
2022-10-09T05:30:26.012Z,9.5
2022-10-09T05:31:26.455Z,9.5
2022-10-09T05:32:26.711Z,9.5
2022-10-09T05:33:26.841Z,9.5
2022-10-09T05:34:26.974Z,9.5
2022-10-09T05:35:27.103Z,9.5
2022-10-09T05:36:27.230Z,9.5
2022-10-09T05:37:27.353Z,9.5
2022-10-09T05:38:27.479Z,9.5
2022-10-09T05:39:27.605Z,9.5
2022-10-09T05:40:29.466Z,9.5
2022-10-09T05:41:29.613Z,9.5
2022-10-09T05:42:29.741Z,9.5
2022-10-09T05:43:29.870Z,9.5
2022-10-09T05:44:29.995Z,9.5
2022-10-09T05:45:30.240Z,9.5
2022-10-09T05:46:30.461Z,9.5
2022-10-09T05:47:30.588Z,9.5
2022-10-09T05:48:30.719Z,9.5
2022-10-09T05:49:30.852Z,9.5
2022-10-09T05:50:30.972Z,9.5
2022-10-09T05:51:31.099Z,9.5
2022-10-09T05:52:31.227Z,9.5
2022-10-09T05:53:31.349Z,9.5
2022-10-09T05:54:31.479Z,9.5
2022-10-09T05:55:31.611Z,9.39
2022-10-09T05:56:31.740Z,9.39
2022-10-09T05:57:31.868Z,9.39
2022-10-09T05:58:31.998Z,9.39
2022-10-09T05:59:32.123Z,9.39
2022-10-09T06:00:32.248Z,9.39
2022-10-09T06:01:32.739Z,9.39
2022-10-09T06:02:33.141Z,9.39
2022-10-09T06:03:33.386Z,9.39
2022-10-09T06:04:33.514Z,9.39
2022-10-09T06:05:33.640Z,9.3
2022-10-09T06:06:33.771Z,9.3
2022-10-09T06:07:33.905Z,9.3
2022-10-09T06:08:34.036Z,9.3
2022-10-09T06:09:34.164Z,9.3
2022-10-09T06:10:34.295Z,9.3
2022-10-09T06:11:34.442Z,9.3
2022-10-09T06:12:34.569Z,9.3
2022-10-09T06:13:34.902Z,9.3
2022-10-09T06:14:35.027Z,9.3
2022-10-09T06:15:35.158Z,9.3
2022-10-09T06:16:35.412Z,9.3
2022-10-09T06:17:35.657Z,9.3
2022-10-09T06:18:35.784Z,9.3
2022-10-09T06:19:35.917Z,9.3
2022-10-09T06:20:36.038Z,9.3
2022-10-09T06:21:36.163Z,9.3
2022-10-09T06:22:36.322Z,9.3
2022-10-09T06:23:36.456Z,9.3
2022-10-09T06:24:36.592Z,9.3
2022-10-09T06:25:36.763Z,9.3
2022-10-09T06:26:36.890Z,9.3
2022-10-09T06:27:37.015Z,9.3
2022-10-09T06:28:37.259Z,9.3
2022-10-09T06:29:37.492Z,9.3
2022-10-09T06:30:39.237Z,9.3
2022-10-09T06:31:39.544Z,9.3
2022-10-09T06:32:39.664Z,9.3
2022-10-09T06:33:39.788Z,9.3
2022-10-09T06:34:39.915Z,9.3
2022-10-09T06:35:40.041Z,9.39
2022-10-09T06:36:40.169Z,9.39
2022-10-09T06:37:40.293Z,9.39
2022-10-09T06:38:40.431Z,9.39
2022-10-09T06:39:40.554Z,9.39
2022-10-09T06:40:40.676Z,9.39
2022-10-09T06:41:40.801Z,9.39
2022-10-09T06:42:40.929Z,9.39
2022-10-09T06:43:41.065Z,9.39
2022-10-09T06:44:41.188Z,9.39
2022-10-09T06:45:41.394Z,9.5
2022-10-09T06:46:41.583Z,9.5
2022-10-09T06:47:41.710Z,9.5
2022-10-09T06:48:41.837Z,9.5
2022-10-09T06:49:41.966Z,9.5
2022-10-09T06:50:42.110Z,9.5
2022-10-09T06:51:42.230Z,9.5
2022-10-09T06:52:42.352Z,9.5
2022-10-09T06:53:42.477Z,9.5
2022-10-09T06:54:42.606Z,9.5
2022-10-09T06:55:42.728Z,9.5
2022-10-09T06:56:42.858Z,9.5
2022-10-09T06:57:42.990Z,9.5
2022-10-09T06:58:43.120Z,9.5
2022-10-09T06:59:43.250Z,9.5
2022-10-09T07:00:43.382Z,9.5
2022-10-09T07:01:43.646Z,9.5
2022-10-09T07:02:44.537Z,9.5
2022-10-09T07:03:44.755Z,9.5
2022-10-09T07:04:44.889Z,9.5
2022-10-09T07:05:45.019Z,9.6
2022-10-09T07:06:45.146Z,9.6
2022-10-09T07:07:45.290Z,9.6
2022-10-09T07:08:45.415Z,9.6
2022-10-09T07:09:45.541Z,9.6
2022-10-09T07:10:45.664Z,9.6
2022-10-09T07:11:45.816Z,9.6
2022-10-09T07:12:46.588Z,9.6
2022-10-09T07:13:47.313Z,9.6
2022-10-09T07:14:47.449Z,9.6
2022-10-09T07:15:47.694Z,9.7
2022-10-09T07:16:47.918Z,9.7
2022-10-09T07:17:48.101Z,9.7
2022-10-09T07:18:48.234Z,9.7
2022-10-09T07:19:48.361Z,9.7
2022-10-09T07:20:48.492Z,9.7
2022-10-09T07:21:48.626Z,9.7
2022-10-09T07:22:49.270Z,9.7
2022-10-09T07:23:49.954Z,9.7
2022-10-09T07:24:50.079Z,9.7
2022-10-09T07:25:50.207Z,9.8
2022-10-09T07:26:50.332Z,9.8
2022-10-09T07:27:50.465Z,9.8
2022-10-09T07:28:50.746Z,9.8
2022-10-09T07:29:51.000Z,9.8
2022-10-09T07:30:51.245Z,9.8
2022-10-09T07:31:51.475Z,9.8
2022-10-09T07:32:52.215Z,9.8
2022-10-09T07:33:52.353Z,9.8
2022-10-09T07:34:52.482Z,9.8
2022-10-09T07:35:52.611Z,10
2022-10-09T07:36:52.739Z,10
2022-10-09T07:37:52.874Z,10
2022-10-09T07:38:53.004Z,10
2022-10-09T07:39:53.138Z,10
2022-10-09T07:40:53.269Z,10
2022-10-09T07:41:53.393Z,10
2022-10-09T07:42:53.558Z,10
2022-10-09T07:43:53.708Z,10
2022-10-09T07:44:53.840Z,10
2022-10-09T07:45:54.058Z,10.2
2022-10-09T07:46:54.247Z,10.2
2022-10-09T07:47:54.369Z,10.2
2022-10-09T07:48:54.492Z,10.2
2022-10-09T07:49:54.617Z,10.2
2022-10-09T07:50:54.747Z,10.2
2022-10-09T07:51:54.874Z,10.2
2022-10-09T07:52:55.000Z,10.2
2022-10-09T07:53:55.124Z,10.2
2022-10-09T07:54:55.251Z,10.2
2022-10-09T07:55:55.375Z,10.4
2022-10-09T07:56:55.505Z,10.4
2022-10-09T07:57:55.628Z,10.4
2022-10-09T07:58:55.750Z,10.4
2022-10-09T07:59:55.890Z,10.4
2022-10-09T08:00:56.015Z,10.4
2022-10-09T08:01:56.269Z,10.4
2022-10-09T08:02:56.615Z,10.4
2022-10-09T08:03:56.843Z,10.4
2022-10-09T08:04:56.972Z,10.4
2022-10-09T08:05:57.098Z,10.7
2022-10-09T08:06:57.224Z,10.7
2022-10-09T08:07:57.350Z,10.7
2022-10-09T08:08:57.486Z,10.7
2022-10-09T08:09:57.621Z,10.7
2022-10-09T08:10:57.746Z,10.7
2022-10-09T08:11:57.872Z,10.7
2022-10-09T08:12:58.010Z,10.7
2022-10-09T08:13:58.144Z,10.7
2022-10-09T08:14:58.283Z,10.9
2022-10-09T08:15:58.467Z,10.9
2022-10-09T08:16:58.752Z,10.9
2022-10-09T08:17:58.879Z,10.9
2022-10-09T08:18:59.011Z,10.9
2022-10-09T08:19:59.148Z,10.9
2022-10-09T08:20:59.283Z,10.9
2022-10-09T08:22:03.762Z,10.9
2022-10-09T08:23:03.955Z,11.1
2022-10-09T08:24:04.081Z,11.1
2022-10-09T08:25:04.211Z,11.2
2022-10-09T08:26:04.342Z,11.2
2022-10-09T08:27:04.466Z,11.2
2022-10-09T08:28:04.761Z,11.2
2022-10-09T08:29:05.141Z,11.2
2022-10-09T08:30:05.335Z,11.2
2022-10-09T08:31:05.573Z,11.2
2022-10-09T08:32:05.789Z,11.2
2022-10-09T08:33:05.921Z,11.2
2022-10-09T08:34:06.052Z,11.2
2022-10-09T08:35:06.182Z,11.4
2022-10-09T08:36:06.306Z,11.4
2022-10-09T08:37:06.463Z,11.4
2022-10-09T08:38:06.609Z,11.4
2022-10-09T08:39:06.742Z,11.4
2022-10-09T08:40:06.861Z,11.4
2022-10-09T08:41:06.985Z,11.4
2022-10-09T08:42:07.125Z,11.4
2022-10-09T08:43:07.258Z,11.4
2022-10-09T08:44:07.389Z,11.4
2022-10-09T08:45:07.518Z,11.6
2022-10-09T08:46:07.720Z,11.6
2022-10-09T08:47:07.918Z,11.6
2022-10-09T08:48:08.047Z,11.6
2022-10-09T08:49:08.186Z,11.6
2022-10-09T08:50:08.316Z,11.6
2022-10-09T08:51:08.447Z,11.6
2022-10-09T08:52:08.576Z,11.6
2022-10-09T08:53:08.698Z,11.6
2022-10-09T08:54:08.833Z,11.6
2022-10-09T08:55:08.954Z,11.7
2022-10-09T08:56:09.077Z,11.7
2022-10-09T08:57:09.205Z,11.7
2022-10-09T08:58:09.333Z,11.7
2022-10-09T08:59:09.454Z,11.7
2022-10-09T09:00:09.575Z,11.7
2022-10-09T09:01:09.706Z,11.7
2022-10-09T09:02:09.984Z,11.7
2022-10-09T09:03:10.295Z,11.7
2022-10-09T09:04:10.476Z,11.7
2022-10-09T09:05:10.600Z,11.9
2022-10-09T09:06:10.719Z,11.9
2022-10-09T09:07:10.845Z,11.9
2022-10-09T09:08:10.975Z,11.9
2022-10-09T09:09:11.113Z,11.9
2022-10-09T09:10:11.240Z,11.9
2022-10-09T09:11:11.376Z,11.9
2022-10-09T09:12:11.501Z,11.9
2022-10-09T09:13:11.626Z,11.9
2022-10-09T09:14:11.752Z,11.9
2022-10-09T09:15:11.886Z,12
2022-10-09T09:16:12.054Z,12
2022-10-09T09:17:12.278Z,12
2022-10-09T09:18:12.399Z,12
2022-10-09T09:19:12.533Z,12
2022-10-09T09:20:12.659Z,12
2022-10-09T09:21:12.785Z,12
2022-10-09T09:22:12.917Z,12
2022-10-09T09:23:13.040Z,12
2022-10-09T09:24:13.166Z,12
2022-10-09T09:25:13.288Z,12.1
2022-10-09T09:26:13.416Z,12.1
2022-10-09T09:27:13.542Z,12.1
2022-10-09T09:28:13.772Z,12.1
2022-10-09T09:29:14.065Z,12.1
2022-10-09T09:30:14.205Z,12.1
2022-10-09T09:31:14.631Z,12.1
2022-10-09T09:32:14.858Z,12.1
2022-10-09T09:33:14.983Z,12.1
2022-10-09T09:34:15.109Z,12.1
2022-10-09T09:35:15.234Z,12.3
2022-10-09T09:36:15.359Z,12.3
2022-10-09T09:37:15.486Z,12.3
2022-10-09T09:38:15.616Z,12.3
2022-10-09T09:40:38.196Z,12.3
2022-10-09T09:41:42.287Z,12.5
2022-10-09T09:42:42.415Z,12.5
2022-10-09T09:43:42.543Z,12.5
2022-10-09T09:44:42.677Z,12.5
2022-10-09T09:45:42.806Z,12.6
2022-10-09T09:46:43.074Z,12.6
2022-10-09T09:47:43.329Z,12.6
2022-10-09T09:48:43.585Z,12.6
2022-10-09T09:49:43.719Z,12.6
2022-10-09T09:51:27.215Z,12.6
2022-10-09T09:52:29.685Z,12.7
2022-10-09T09:53:29.819Z,12.7
2022-10-09T09:54:29.955Z,12.7
2022-10-09T09:55:30.098Z,12.8
2022-10-09T09:56:33.602Z,12.8
2022-10-09T09:58:10.435Z,12.8
2022-10-09T09:59:10.557Z,12.8
2022-10-09T10:00:10.687Z,12.8
2022-10-09T10:01:10.970Z,12.8
2022-10-09T10:02:11.467Z,12.8
2022-10-09T10:03:11.756Z,12.8
2022-10-09T10:04:11.874Z,12.8
2022-10-09T10:05:11.997Z,13
2022-10-09T10:06:12.124Z,13
2022-10-09T10:07:12.251Z,13
2022-10-09T10:08:12.384Z,13
2022-10-09T10:09:12.506Z,13
2022-10-09T10:10:12.629Z,13
2022-10-09T10:11:12.757Z,13
2022-10-09T10:12:12.887Z,13
2022-10-09T10:13:13.030Z,13
2022-10-09T10:14:13.160Z,13
2022-10-09T10:15:13.286Z,13.2
2022-10-09T10:16:13.502Z,13.2
2022-10-09T10:17:16.649Z,13.2
2022-10-09T10:18:16.794Z,13.2
2022-10-09T10:19:16.930Z,13.2
2022-10-09T10:20:17.078Z,13.2
2022-10-09T10:21:17.215Z,13.2
2022-10-09T10:22:17.348Z,13.2
2022-10-09T10:23:17.470Z,13.2
2022-10-09T10:24:17.598Z,13.2
2022-10-09T10:25:17.725Z,13.3
2022-10-09T10:26:17.860Z,13.3
2022-10-09T10:27:17.984Z,13.3
2022-10-09T10:28:18.301Z,13.3
2022-10-09T10:29:18.502Z,13.3
2022-10-09T10:30:18.830Z,13.3
2022-10-09T10:31:19.164Z,13.3
2022-10-09T10:32:19.378Z,13.3
2022-10-09T10:33:19.517Z,13.3
2022-10-09T10:34:19.644Z,13.3
2022-10-09T10:35:19.769Z,13.4
2022-10-09T10:36:19.894Z,13.4
2022-10-09T10:37:20.010Z,13.4
2022-10-09T10:38:20.136Z,13.4
2022-10-09T10:39:20.260Z,13.4
2022-10-09T10:40:20.392Z,13.4
2022-10-09T10:41:20.513Z,13.4
2022-10-09T10:42:20.642Z,13.4
2022-10-09T10:43:20.767Z,13.4
2022-10-09T10:44:20.892Z,13.4
2022-10-09T10:45:21.026Z,13.5
2022-10-09T10:46:21.250Z,13.5
2022-10-09T10:47:21.494Z,13.5
2022-10-09T10:48:21.624Z,13.5
2022-10-09T10:49:21.751Z,13.5
2022-10-09T10:50:21.878Z,13.5
2022-10-09T10:51:22.009Z,13.5
2022-10-09T10:52:22.136Z,13.5
2022-10-09T10:53:22.258Z,13.5
2022-10-09T10:54:22.382Z,13.5
2022-10-09T10:55:22.522Z,13.6
2022-10-09T10:56:22.652Z,13.6
2022-10-09T10:57:22.781Z,13.6
2022-10-09T10:58:22.920Z,13.6
2022-10-09T10:59:23.051Z,13.6
2022-10-09T11:00:23.216Z,13.6
2022-10-09T11:01:23.438Z,13.6
2022-10-09T11:02:23.739Z,13.6
2022-10-09T11:03:24.014Z,13.6
2022-10-09T11:04:24.264Z,13.6
2022-10-09T11:05:24.393Z,13.7
2022-10-09T11:06:24.520Z,13.7
2022-10-09T11:07:24.665Z,13.7
2022-10-09T11:08:24.795Z,13.7
2022-10-09T11:09:24.922Z,13.7
2022-10-09T11:10:25.067Z,13.7
2022-10-09T11:11:25.208Z,13.7
2022-10-09T11:12:48.369Z,13.7
2022-10-09T11:13:58.115Z,13.8
2022-10-09T11:14:58.247Z,13.9
2022-10-09T11:15:58.520Z,13.9
2022-10-09T11:16:58.770Z,13.9
2022-10-09T11:17:58.901Z,13.9
2022-10-09T11:18:59.027Z,13.9
2022-10-09T11:19:59.167Z,13.9
2022-10-09T11:20:59.293Z,13.9
2022-10-09T11:21:59.424Z,13.9
2022-10-09T11:22:59.553Z,13.9
2022-10-09T11:23:59.681Z,13.9
2022-10-09T11:24:59.811Z,14
2022-10-09T11:25:59.949Z,14
2022-10-09T11:27:03.877Z,14
2022-10-09T11:28:04.266Z,14.1
2022-10-09T11:29:04.517Z,14.1
2022-10-09T11:30:04.647Z,14.1
2022-10-09T11:31:05.024Z,14.1
2022-10-09T11:32:05.395Z,14.1
2022-10-09T11:33:05.694Z,14.1
2022-10-09T11:34:05.834Z,14.1
2022-10-09T11:35:05.963Z,14.2
2022-10-09T11:36:06.094Z,14.2
2022-10-09T11:37:06.220Z,14.2
2022-10-09T11:38:08.976Z,14.2
2022-10-09T11:39:11.623Z,14.2
2022-10-09T11:40:11.760Z,14.2
2022-10-09T11:41:11.891Z,14.2
2022-10-09T11:42:12.015Z,14.2
2022-10-09T11:43:12.154Z,14.2
2022-10-09T11:44:12.279Z,14.2
2022-10-09T11:45:12.477Z,14.3
2022-10-09T11:46:12.792Z,14.3
2022-10-09T11:47:13.067Z,14.3
2022-10-09T11:48:13.196Z,14.3
2022-10-09T11:49:13.356Z,14.3
2022-10-09T11:50:13.488Z,14.3
2022-10-09T11:51:13.699Z,14.3
2022-10-09T11:52:13.913Z,14.3
2022-10-09T11:53:14.045Z,14.3
2022-10-09T11:54:14.172Z,14.3
2022-10-09T11:55:14.301Z,14.4
2022-10-09T11:56:14.429Z,14.4
2022-10-09T11:57:15.776Z,14.4
2022-10-09T11:58:15.910Z,14.4
2022-10-09T11:59:16.040Z,14.4
2022-10-09T12:00:16.167Z,14.4
2022-10-09T12:01:16.442Z,14.4
2022-10-09T12:02:16.836Z,14.4
2022-10-09T12:03:17.085Z,14.4
2022-10-09T12:04:37.660Z,14.4
2022-10-09T12:05:54.672Z,14.6
2022-10-09T12:06:54.798Z,14.6
2022-10-09T12:07:54.924Z,14.6
2022-10-09T12:08:55.069Z,14.6
2022-10-09T12:09:55.195Z,14.6
2022-10-09T12:10:55.313Z,14.6
2022-10-09T12:11:55.447Z,14.6
2022-10-09T12:12:55.577Z,14.6
2022-10-09T12:13:55.702Z,14.6
2022-10-09T12:14:55.848Z,14.6
2022-10-09T12:15:55.977Z,14.6
2022-10-09T12:16:56.237Z,14.6
2022-10-09T12:17:56.487Z,14.6
2022-10-09T12:18:56.620Z,14.6
2022-10-09T12:20:01.352Z,14.6
2022-10-09T12:21:01.563Z,14.7
2022-10-09T12:22:01.688Z,14.7
2022-10-09T12:23:27.307Z,14.7
2022-10-09T12:24:28.489Z,14.7
2022-10-09T12:25:28.622Z,14.7
2022-10-09T12:26:28.750Z,14.7
2022-10-09T12:27:28.873Z,14.7
2022-10-09T12:28:29.147Z,14.7
2022-10-09T12:29:29.414Z,14.7
2022-10-09T12:30:29.648Z,14.7
2022-10-09T12:31:30.037Z,14.7
2022-10-09T12:32:30.319Z,14.7
2022-10-09T12:33:30.459Z,14.7
2022-10-09T12:34:30.586Z,14.7
2022-10-09T12:35:30.709Z,14.7
2022-10-09T12:36:30.831Z,14.7
2022-10-09T12:37:30.953Z,14.7
2022-10-09T12:38:31.093Z,14.7
2022-10-09T12:39:31.218Z,14.7
2022-10-09T12:40:31.346Z,14.7
2022-10-09T12:41:31.471Z,14.7
2022-10-09T12:42:33.659Z,14.7
2022-10-09T12:43:33.789Z,14.7
2022-10-09T12:44:33.917Z,14.7
2022-10-09T12:45:34.159Z,14.8
2022-10-09T12:46:34.422Z,14.8
2022-10-09T12:47:34.548Z,14.8
2022-10-09T12:48:34.678Z,14.8
2022-10-09T12:49:34.803Z,14.8
2022-10-09T12:50:34.929Z,14.8
2022-10-09T12:51:35.052Z,14.8
2022-10-09T12:52:35.184Z,14.8
2022-10-09T12:53:35.313Z,14.8
2022-10-09T12:54:35.437Z,14.8
2022-10-09T12:55:35.564Z,14.8
2022-10-09T12:56:35.696Z,14.8
2022-10-09T12:57:35.820Z,14.8
2022-10-09T12:58:35.948Z,14.8
2022-10-09T12:59:36.071Z,14.8
2022-10-09T13:00:36.198Z,14.8
2022-10-09T13:01:36.527Z,14.8
2022-10-09T13:02:37.152Z,14.8
2022-10-09T13:03:37.447Z,14.8
2022-10-09T13:04:37.590Z,14.8
2022-10-09T13:05:37.720Z,14.8
2022-10-09T13:06:37.859Z,14.8
2022-10-09T13:07:37.994Z,14.8
2022-10-09T13:08:38.118Z,14.8
2022-10-09T13:09:38.244Z,14.8
2022-10-09T13:10:38.372Z,14.8
2022-10-09T13:11:38.495Z,14.8
2022-10-09T13:12:38.622Z,14.8
2022-10-09T13:13:38.753Z,14.8
2022-10-09T13:14:38.883Z,14.8
2022-10-09T13:15:39.011Z,14.8
2022-10-09T13:16:39.304Z,14.8
2022-10-09T13:17:39.529Z,14.8
2022-10-09T13:18:39.657Z,14.8
2022-10-09T13:19:39.780Z,14.8
2022-10-09T13:20:39.911Z,14.8
2022-10-09T13:21:40.039Z,14.8
2022-10-09T13:22:40.171Z,14.8
2022-10-09T13:23:40.301Z,14.8
2022-10-09T13:24:40.446Z,14.8
2022-10-09T13:25:40.581Z,14.8
2022-10-09T13:26:40.714Z,14.8
2022-10-09T13:27:40.841Z,14.8
2022-10-09T13:28:41.078Z,14.8
2022-10-09T13:29:41.290Z,14.8
2022-10-09T13:30:41.505Z,14.8
2022-10-09T13:31:41.745Z,14.8
2022-10-09T13:32:41.872Z,14.8
2022-10-09T13:33:42.007Z,14.8
2022-10-09T13:34:42.138Z,14.8
2022-10-09T13:35:42.265Z,14.8
2022-10-09T13:36:42.399Z,14.8